Aérodrome :
LOGIN :

S'inscrire | Disclaimer

   EN    FR    IT 

 










Légende :    VFR   VFR Marginal   IFR   IFR Intensif   IFR Très Intensif
Visi : 
Plafond : 
>= 8 km
>= 3000ft
5 à 8 km
1000 à 3000 ft
1500m à 5 km
500 à 1000 ft
800 à 1500m
200 à 500 ft
< 800m
< 200 ft
Symboles :   Orages  Brouillard  Fortes neiges  Fortes précipitations  Vent > 20 kt
SIGMETs :   Divers  Orages  Givrage  Turbulence  Onde Orograph.  Cendres Volcan.






- Altitude de l'aérodrome : 481 ft
- Code IATA : DNK


UKDD - Dnipropetrovs'k

DERNIER METAR :
  • 191500Z 04002MPS 010V070 0200 R08/0600N FZFG VV001 M03/M03 Q1031 R08/710150 NOSIG

METARs EXPIRÉS :
  • 191430Z VRB01MPS 0900 0650E R08/P2000N FZFG VV001 M03/M03 Q1031 R08/710150 NOSIG
  • 191400Z 05002MPS 360V080 1100 R08/1300N BR OVC002 M03/M03 Q1031 R08/710150 NOSIG
  • 191330Z 01002MPS 1500 0900W R08/1100N FZFG VV002 M03/M03 Q1030 R08/710150 NOSIG
  • 191300Z 36002MPS 330V030 1100 1000S R08/1400N BR OVC002 M03/M03 Q1030 R08/710150 TEMPO 0200 FZFG VV001
  • 191230Z 00000MPS 1800 1200W R08/1300U BR OVC002 M03/M03 Q1030 R08/710150 NOSIG

TAF TAF UKDD
Valide du 19 à 12h jusqu'au 20 à 12h UTC


191103Z 1912/2012 06003MPS 0200 FZFG VV001 TX01/2012Z TNM04/2005Z
TEMPO 1912/2006 1100 -FZDZ BR OVC004
BECMG 2006/2007 2100 BR BKN007
TEMPO 2007/2012 35005MPS 1100 -FZRA BR OVC004



MET'MAP, la Météo Aéronautique d'un coup d'oeil ! - Copyright ORBIFLY Décembre 2007 - Disclaimer

ORBIFLY MET'MAP TEAM :

Programmation & Développement : Alexandra Zaïnal
Sur une idée originale de : Baudouin d'Aumeries
Assistance à la programmation : Marc-Olivier Méhu
Soutien technique & logistique : Manuel Goepfert

Contact : metmap@orbifly.com




SOURCES & CREDITS :

   NOAA